Reklama
Líbí se Vám tento web? Budeme velmi rádi, pokud přidáte hodnocení +1

Seznam meteostanic a jejich METAR

Vyhledat místa podle abecedy:
A B C D E F G H I J K L M N O P Q R S T U V W X Y Z

Filtrovat:

ID stanice:
a/nebo
Název místa (fulltext):
 
Místo (ID)Naposledy načteno 
Kadaň - Tušimice (Tusimice) 21.06.2018 02:00 UTC Zobrazit data
Místo: Kadaň - Tušimice
Teplota: 16 °C (pocitová: 15.3 °C)
Vítr: 1 m/s z(e) 0°
Počasí: skorojasno
Dohlednost: 30 km
Zákl. oblačnosti: 1/8 1800 m
Vlhkost: 88%
Karlovy Vary (K.Vary) 21.06.2018 02:00 UTC Zobrazit data
Místo: Karlovy Vary
Teplota: 13 °C (pocitová: 11.7 °C)
Vítr: 1 m/s z(e) 190°
Počasí: skorojasno
Dohlednost: 50 km
Zákl. oblačnosti: 1/8 1500 m
Vlhkost: 94%
Kocelovice (Kocelovice) 21.06.2018 02:00 UTC Zobrazit data
Místo: Kocelovice
Teplota: 15 °C (pocitová: 14.1 °C)
Vítr: 1 m/s z(e) 0°
Počasí:
Dohlednost: 29 km
Zákl. oblačnosti: N/A
Vlhkost: 88%
Kopisty (Kopisty) 20.06.2018 21:00 UTC Zobrazit data
Místo: Kopisty
Teplota: 20 °C (pocitová: 25.5 °C)
Vítr: 0 m/s z(e) 0°
Počasí: skoro zataženo
Dohlednost: 30 km
Zákl. oblačnosti: 5/8 2100 m
Vlhkost: 78%
Kostelní Myslová (K.Myslova) 21.06.2018 02:00 UTC Zobrazit data
Místo: Kostelní Myslová
Teplota: 17 °C (pocitová: 15.9 °C)
Vítr: 2 m/s z(e) 330°
Počasí:
Dohlednost: 35 km
Zákl. oblačnosti: N/A
Vlhkost: 73%
Křešín - Kramolín (Kramolin) 21.06.2018 02:00 UTC Zobrazit data
Místo: Křešín - Kramolín
Teplota: 14 °C (pocitová: 12.9 °C)
Vítr: 1 m/s z(e) 0°
Počasí:
Dohlednost: 35 km
Zákl. oblačnosti: N/A
Vlhkost: 88%
Kuchařovice - Znojmo (Kucharovic) 21.06.2018 02:00 UTC Zobrazit data
Místo: Kuchařovice - Znojmo
Teplota: 16 °C (pocitová: 14 °C)
Vítr: 3 m/s z(e) 10°
Počasí:
Dohlednost: 30 km
Zákl. oblačnosti: N/A
Vlhkost: 77%
Kabul (OAKB) 21.06.2018 01:50 UTC Zobrazit METAR
OAKB 210150Z VRB02KT CAVOK 22/01 Q1017 NOSIG RMK A3004 BLU BLU
Kajaani (EFKI) 21.06.2018 01:50 UTC Zobrazit METAR
EFKI 210150Z AUTO 26009KT CAVOK 10/05 Q1001
Kardla (EEKA) 20.06.2018 14:50 UTC Zobrazit METAR
EEKA 201450Z 24010G22KT 9999 SCT025 16/08 Q1012
Karlsruhe/ Baden-Baden (EDSB) 20.06.2018 22:50 UTC Zobrazit METAR
EDSB 202250Z AUTO 13002KT 9999 FEW072/// 22/18 Q1017
Karup (EKKA) 20.06.2018 16:50 UTC Zobrazit METAR
EKKA 201650Z 25014KT 190V270 9999 OVC007 16/15 Q1011
Kathmandu (VNKT) 21.06.2018 01:50 UTC Zobrazit METAR
VNKT 210150Z 27003KT 5000 -RA FEW020 SCT030 BKN100 21/20 Q1013 NOSIG
Katowice (EPKT) 21.06.2018 02:00 UTC Zobrazit METAR
EPKT 210200Z 06003KT 7000 MIFG NSC 13/11 Q1017
Kaunas (EYKA) 21.06.2018 01:50 UTC Zobrazit METAR
EYKA 210150Z 16003KT CAVOK 15/10 Q1014
Kavala (LGKV) 21.06.2018 01:50 UTC Zobrazit METAR
LGKV 210150Z 00000KT 9999 FEW030 21/15 Q1015
Kazan (UWKD) Zatím nenačteno  
Kefallinia (LGKF) 20.06.2018 19:50 UTC Zobrazit METAR
LGKF 201950Z 36004KT 9999 FEW018 25/18 Q1016
Kemi (EFKE) 21.06.2018 01:50 UTC Zobrazit METAR
EFKE 210150Z AUTO 26005KT 220V300 CAVOK 12/04 Q0999
Kerkira (LGKR) 21.06.2018 01:50 UTC Zobrazit METAR
LGKR 210150Z 00000KT 9999 FEW025 21/19 Q1015 NOSIG
Kerry (EIKY) 20.06.2018 19:00 UTC Zobrazit METAR
EIKY 201900Z 32008KT 290V360 9999 FEW032 SCT042 13/06 Q1027
Khartoum (HSSS) 21.06.2018 02:00 UTC Zobrazit METAR
HSSS 210200Z 33011KT CAVOK 26/18 Q1014 NOSIG
Kigali (HRYR) 20.06.2018 15:00 UTC Zobrazit METAR
HRYR 201500Z 06011KT 9999 SCT025 BKN100 23/14 Q1021 NOSIG
Kingston (MKJP) 21.06.2018 02:00 UTC Zobrazit METAR
MKJP 210200Z 14015KT 9999 FEW022 29/24 Q1014
Kingstown (TVSV) 16.03.2018 23:00 UTC Zobrazit METAR
TVSV 162300Z 09007KT 050V140 9999 FEW020 26/21 Q1014
Kinshasa (FZAA) 21.06.2018 02:00 UTC Zobrazit METAR
FZAA 210200Z 22004KT 6000 SCT014 21/19 Q1016 NOSIG
Kittila (EFKT) 21.06.2018 01:50 UTC Zobrazit METAR
EFKT 210150Z AUTO 25006KT 9999 BKN017 07/04 Q0996
Klagenfurt (LOWK) 21.06.2018 01:50 UTC Zobrazit METAR
LOWK 210150Z AUTO 31004KT 9999 NSC 17/14 Q1019
Kortrijk-Wevelgem (EBKT) Zatím nenačteno  
Kosice (LZKZ) 21.06.2018 02:00 UTC Zobrazit METAR
LZKZ 210200Z 35004KT CAVOK 18/15 Q1018
Krakow (EPKK) 21.06.2018 02:00 UTC Zobrazit METAR
EPKK 210200Z VRB01KT 9999 BKN060 17/15 Q1017
Kuala Lumpur (WMKK) 21.06.2018 02:00 UTC Zobrazit METAR
WMKK 210200Z VRB02KT 9999 FEW020 SCT140 BKN280 29/23 Q1011 NOSIG
Kuopio (EFKU) 21.06.2018 01:50 UTC Zobrazit METAR
EFKU 210150Z AUTO 24008KT CAVOK 11/04 Q1003
Kuressaare (EEKE) 20.06.2018 15:50 UTC Zobrazit METAR
EEKE 201550Z 25012KT 210V270 9999 FEW026 16/11 Q1013
Kuwait (OKBK) 21.06.2018 02:00 UTC Zobrazit METAR
OKBK 210200Z 34014KT CAVOK 33/10 Q1003 NOSIG
Kyiv (UKBB) Zatím nenačteno  
Reklama

Počasí na Váš email

Emaily jsou bez reklamy a bez spamu



Odhlásit newsletter

Reklama


Lunární kalendář

  • 28.06.
  • 06.07.
  • 13.07.
  • 19.07.



Slunečno.cz na Google+

Reklama


Reklama
Povinné ručení
Reklama




Reklama